Time;durP1;ratioP1;P1;durP2;ratioP2;P2;SDS_P1;SDS_P2;PMS_P1;PMS_P2;Temp;Humidity;BMP_temperature;BMP_pressure;BME280_temperature;BME280_humidity;BME280_pressure;Samples;Min_cycle;Max_cycle;Signal;HPM_P1;HPM_P2
2021/09/01 00:00:46;;;;;;;7.97;6.03;;;10.30;99.90;;;;;;466112;255;27991;-70
2021/09/01 00:02:48;;;;;;;8.03;6.23;;;10.30;99.90;;;;;;466097;255;27914;-70
2021/09/01 00:04:49;;;;;;;9.30;7.30;;;10.20;99.90;;;;;;466089;254;27902;-70
2021/09/01 00:06:50;;;;;;;7.47;6.13;;;10.20;99.90;;;;;;466104;255;27921;-70
2021/09/01 00:08:51;;;;;;;10.57;6.90;;;10.20;99.90;;;;;;466072;255;27980;-70
2021/09/01 00:10:53;;;;;;;7.80;6.73;;;10.20;99.90;;;;;;466099;255;28100;-70
2021/09/01 00:12:54;;;;;;;9.33;6.70;;;10.20;99.90;;;;;;465940;255;28599;-70
2021/09/01 00:14:55;;;;;;;9.73;7.57;;;10.30;99.90;;;;;;466087;255;28444;-70
2021/09/01 00:16:56;;;;;;;7.97;6.50;;;10.30;99.90;;;;;;466039;255;28486;-70
2021/09/01 00:18:58;;;;;;;9.80;7.50;;;10.30;99.90;;;;;;466076;255;28117;-70
2021/09/01 00:20:59;;;;;;;10.60;7.13;;;10.30;99.90;;;;;;465908;255;27772;-70
2021/09/01 00:23:00;;;;;;;23.70;8.47;;;10.30;99.90;;;;;;465892;255;28041;-70
2021/09/01 00:25:01;;;;;;;10.97;7.97;;;10.30;99.90;;;;;;466033;255;28005;-70
2021/09/01 00:27:03;;;;;;;11.10;7.30;;;10.30;99.90;;;;;;466082;255;28023;-70
2021/09/01 00:29:04;;;;;;;10.10;8.10;;;10.30;99.90;;;;;;466099;255;28121;-70
2021/09/01 00:31:05;;;;;;;11.70;7.87;;;10.30;99.90;;;;;;466115;255;27880;-70
2021/09/01 00:33:06;;;;;;;9.83;7.33;;;10.30;99.90;;;;;;466103;255;28474;-70
2021/09/01 00:35:08;;;;;;;8.30;6.17;;;10.20;99.90;;;;;;466118;255;28537;-70
2021/09/01 00:37:09;;;;;;;10.90;7.43;;;10.20;99.90;;;;;;466100;255;28647;-70
2021/09/01 00:39:10;;;;;;;10.90;7.70;;;10.20;99.90;;;;;;466025;255;27906;-70
2021/09/01 00:41:11;;;;;;;8.77;7.13;;;10.20;99.90;;;;;;466099;255;28105;-70
2021/09/01 00:43:13;;;;;;;10.60;7.87;;;10.20;99.90;;;;;;466107;255;28119;-70
2021/09/01 00:45:14;;;;;;;8.93;7.13;;;10.20;99.90;;;;;;466088;255;27628;-70
2021/09/01 00:47:15;;;;;;;8.30;6.53;;;10.10;99.90;;;;;;466043;255;28045;-70
2021/09/01 00:49:16;;;;;;;9.30;7.20;;;10.10;99.90;;;;;;466055;252;28121;-70
2021/09/01 00:51:18;;;;;;;9.60;6.80;;;10.10;99.90;;;;;;466096;255;28104;-70
2021/09/01 00:53:19;;;;;;;9.27;7.23;;;10.10;99.90;;;;;;466077;255;28036;-70
2021/09/01 00:55:20;;;;;;;8.87;6.97;;;10.10;99.90;;;;;;466084;255;27846;-70
2021/09/01 00:57:21;;;;;;;7.80;5.70;;;10.10;99.90;;;;;;466068;255;28373;-70
2021/09/01 00:59:23;;;;;;;9.23;7.00;;;10.10;99.90;;;;;;465986;255;28532;-70
2021/09/01 01:01:24;;;;;;;6.90;5.90;;;10.10;99.90;;;;;;465967;255;28454;-70
2021/09/01 01:03:25;;;;;;;8.83;6.87;;;10.10;99.90;;;;;;466099;254;28128;-70
2021/09/01 01:05:26;;;;;;;8.30;6.23;;;10.10;99.90;;;;;;466058;255;27998;-70
2021/09/01 01:07:28;;;;;;;8.93;6.83;;;10.20;99.90;;;;;;466035;255;27830;-70
2021/09/01 01:09:29;;;;;;;8.53;6.43;;;10.20;99.90;;;;;;466077;255;28028;-70
2021/09/01 01:11:30;;;;;;;7.90;6.60;;;10.10;99.90;;;;;;466101;255;27869;-70
2021/09/01 01:13:31;;;;;;;8.10;6.60;;;10.10;99.90;;;;;;466076;255;28234;-70
2021/09/01 01:15:33;;;;;;;10.60;7.40;;;10.10;99.90;;;;;;466047;255;28011;-70
2021/09/01 01:17:34;;;;;;;7.90;6.50;;;10.00;99.90;;;;;;465834;255;27973;-70
2021/09/01 01:19:35;;;;;;;8.73;7.13;;;10.00;99.90;;;;;;465949;255;29473;-70
2021/09/01 01:21:36;;;;;;;8.50;6.90;;;10.00;99.90;;;;;;465935;255;28532;-70
2021/09/01 01:23:38;;;;;;;8.77;7.07;;;10.00;99.90;;;;;;465895;255;28517;-70
2021/09/01 01:25:39;;;;;;;9.50;7.27;;;10.00;99.90;;;;;;465841;255;28493;-71
2021/09/01 01:27:40;;;;;;;7.70;6.83;;;10.00;99.90;;;;;;465997;255;27904;-70
2021/09/01 01:29:41;;;;;;;7.83;6.30;;;9.90;99.90;;;;;;466080;255;27894;-70
2021/09/01 01:31:43;;;;;;;9.63;7.10;;;10.00;99.90;;;;;;465932;255;27959;-70
2021/09/01 01:33:44;;;;;;;8.50;6.80;;;9.90;99.90;;;;;;465800;255;28081;-70
2021/09/01 01:35:46;;;;;;;7.63;6.43;;;9.90;99.90;;;;;;466067;255;27647;-70
2021/09/01 01:37:46;;;;;;;7.30;6.10;;;9.80;99.90;;;;;;465826;255;28210;-70
2021/09/01 01:39:48;;;;;;;7.90;6.30;;;9.80;99.90;;;;;;466081;255;27790;-70
2021/09/01 01:41:49;;;;;;;8.50;6.73;;;9.80;99.90;;;;;;466021;255;28037;-70
2021/09/01 01:43:50;;;;;;;8.50;6.47;;;9.80;99.90;;;;;;466106;255;28046;-70
2021/09/01 01:45:51;;;;;;;8.00;6.67;;;9.80;99.90;;;;;;466108;255;28094;-70
2021/09/01 01:47:53;;;;;;;7.50;6.27;;;9.80;99.90;;;;;;465824;255;28035;-70
2021/09/01 01:49:54;;;;;;;7.33;6.40;;;9.80;99.90;;;;;;465881;255;28303;-71
2021/09/01 01:51:55;;;;;;;7.80;6.33;;;9.70;99.90;;;;;;466018;255;28567;-70
2021/09/01 01:53:56;;;;;;;6.60;5.80;;;9.70;99.90;;;;;;465802;255;28641;-70
2021/09/01 01:55:58;;;;;;;7.77;6.40;;;9.70;99.90;;;;;;465891;255;28552;-70
2021/09/01 01:57:59;;;;;;;7.40;6.07;;;9.70;99.90;;;;;;466091;255;28728;-70
2021/09/01 02:00:00;;;;;;;8.53;6.40;;;9.70;99.90;;;;;;466091;255;28594;-70
2021/09/01 02:02:01;;;;;;;7.73;6.23;;;9.70;99.90;;;;;;466047;255;28083;-70
2021/09/01 02:04:03;;;;;;;11.70;6.83;;;9.70;99.90;;;;;;466065;255;28029;-70
2021/09/01 02:06:04;;;;;;;5.67;5.07;;;9.70;99.90;;;;;;466042;254;27905;-70
2021/09/01 02:08:05;;;;;;;8.33;6.30;;;9.60;99.90;;;;;;466057;255;28140;-70
2021/09/01 02:10:08;;;;;;;8.23;6.77;;;9.60;99.90;;;;;;466147;255;28154;-71
2021/09/01 02:12:09;;;;;;;8.07;6.20;;;9.60;99.90;;;;;;466117;255;27940;-70
2021/09/01 02:14:10;;;;;;;7.57;6.03;;;9.60;99.90;;;;;;466055;255;27874;-70
2021/09/01 02:16:11;;;;;;;8.97;6.50;;;9.60;99.90;;;;;;466062;254;28080;-70
2021/09/01 02:18:13;;;;;;;6.27;5.63;;;9.60;99.90;;;;;;466089;250;28097;-70
2021/09/01 02:20:14;;;;;;;8.10;6.73;;;9.60;99.90;;;;;;466090;255;28427;-70
2021/09/01 02:22:15;;;;;;;7.37;5.97;;;9.60;99.90;;;;;;466091;255;28449;-70
2021/09/01 02:24:16;;;;;;;6.63;5.50;;;9.60;99.90;;;;;;466000;255;28574;-70
2021/09/01 02:26:18;;;;;;;6.87;5.57;;;9.60;99.90;;;;;;466105;255;28574;-70
2021/09/01 02:28:19;;;;;;;7.60;5.70;;;9.60;99.90;;;;;;466116;255;28607;-70
2021/09/01 02:30:22;;;;;;;8.13;7.00;;;9.60;99.90;;;;;;466005;255;27725;-69
2021/09/01 02:32:21;;;;;;;8.50;6.30;;;9.60;99.90;;;;;;465967;255;28032;-70
2021/09/01 02:34:23;;;;;;;7.17;5.70;;;9.60;99.90;;;;;;466083;255;28135;-70
2021/09/01 02:36:24;;;;;;;7.30;6.17;;;9.60;99.90;;;;;;466130;255;27909;-71
2021/09/01 02:38:25;;;;;;;6.77;6.03;;;9.60;99.90;;;;;;466049;255;28138;-70
2021/09/01 02:40:26;;;;;;;8.10;6.57;;;9.50;99.90;;;;;;466114;255;28013;-70
2021/09/01 02:42:28;;;;;;;8.10;6.50;;;9.40;99.90;;;;;;465787;255;28089;-70
2021/09/01 02:44:29;;;;;;;8.07;6.17;;;9.40;99.90;;;;;;465939;255;28182;-70
2021/09/01 02:46:30;;;;;;;7.40;6.07;;;9.30;99.90;;;;;;465901;255;27892;-70
2021/09/01 02:48:31;;;;;;;10.10;7.33;;;9.30;99.90;;;;;;466115;255;27996;-70
2021/09/01 02:50:33;;;;;;;8.90;6.03;;;9.30;99.90;;;;;;466108;255;28002;-70
2021/09/01 02:52:34;;;;;;;8.80;6.53;;;9.30;99.90;;;;;;466020;255;28040;-70
2021/09/01 02:54:35;;;;;;;8.03;6.63;;;9.40;99.90;;;;;;466074;255;27757;-70
2021/09/01 02:56:36;;;;;;;7.37;5.97;;;9.40;99.90;;;;;;466101;255;27983;-70
2021/09/01 02:58:38;;;;;;;7.20;5.90;;;9.40;99.90;;;;;;466105;255;28547;-70
2021/09/01 03:00:39;;;;;;;7.00;6.30;;;9.40;99.90;;;;;;466098;255;28738;-70
2021/09/01 03:02:40;;;;;;;7.27;5.90;;;9.40;99.90;;;;;;466086;254;28667;-70
2021/09/01 03:04:41;;;;;;;7.83;6.23;;;9.40;99.90;;;;;;465959;255;28572;-70
2021/09/01 03:06:43;;;;;;;7.80;6.10;;;9.40;99.90;;;;;;466052;255;28173;-70
2021/09/01 03:08:44;;;;;;;8.30;6.10;;;9.40;99.90;;;;;;466120;255;27799;-70
2021/09/01 03:10:45;;;;;;;6.90;6.03;;;9.40;99.90;;;;;;466110;255;27992;-70
2021/09/01 03:12:46;;;;;;;8.30;5.90;;;9.40;99.90;;;;;;466026;255;27965;-70
2021/09/01 03:14:48;;;;;;;7.27;5.87;;;9.40;99.90;;;;;;466056;255;28130;-70
2021/09/01 03:16:49;;;;;;;6.13;5.53;;;9.40;99.90;;;;;;466070;255;28446;-70
2021/09/01 03:18:50;;;;;;;6.23;5.07;;;9.40;99.90;;;;;;465854;255;28061;-70
2021/09/01 03:20:51;;;;;;;8.30;6.70;;;9.40;99.90;;;;;;465979;255;28072;-70
2021/09/01 03:22:53;;;;;;;8.00;6.07;;;9.30;99.90;;;;;;466038;255;27990;-70
2021/09/01 03:24:54;;;;;;;5.37;4.87;;;9.30;99.90;;;;;;466061;254;27999;-70
2021/09/01 03:26:55;;;;;;;7.43;5.80;;;9.20;99.90;;;;;;466130;255;28137;-70
2021/09/01 03:28:57;;;;;;;6.50;5.50;;;9.20;99.90;;;;;;466044;255;28013;-70
2021/09/01 03:30:58;;;;;;;6.23;5.40;;;9.20;99.90;;;;;;466078;255;28078;-70
2021/09/01 03:32:59;;;;;;;7.07;6.37;;;9.20;99.90;;;;;;465751;255;28098;-70
2021/09/01 03:35:01;;;;;;;7.07;5.57;;;9.20;99.90;;;;;;466094;255;28190;-70
2021/09/01 03:37:02;;;;;;;6.83;6.13;;;9.20;99.90;;;;;;466093;254;27846;-70
2021/09/01 03:39:03;;;;;;;7.27;6.07;;;9.30;99.90;;;;;;466048;255;27909;-70
2021/09/01 03:41:04;;;;;;;6.90;5.97;;;9.30;99.90;;;;;;466088;255;27965;-70
2021/09/01 03:43:06;;;;;;;8.10;5.77;;;9.20;99.90;;;;;;466039;255;28007;-70
2021/09/01 03:45:07;;;;;;;7.20;5.40;;;9.20;99.90;;;;;;466022;255;28064;-70
2021/09/01 03:47:08;;;;;;;6.63;5.07;;;9.20;99.90;;;;;;466091;255;28310;-70
2021/09/01 03:49:16;;;;;;;9.53;6.07;;;9.20;99.90;;;;;;466083;255;28629;-70
2021/09/01 03:51:11;;;;;;;6.47;5.80;;;9.20;99.90;;;;;;465373;255;28483;-70
2021/09/01 03:53:13;;;;;;;6.90;5.73;;;9.10;99.90;;;;;;466117;255;28454;-70
2021/09/01 03:55:13;;;;;;;5.90;5.30;;;9.10;99.90;;;;;;466064;255;28385;-70
2021/09/01 03:57:14;;;;;;;5.47;4.93;;;9.10;99.90;;;;;;466115;255;28561;-70
2021/09/01 03:59:16;;;;;;;6.80;5.83;;;9.10;99.90;;;;;;466083;255;28034;-70
2021/09/01 04:01:17;;;;;;;6.77;5.97;;;9.10;99.90;;;;;;466094;255;28051;-70
2021/09/01 04:03:18;;;;;;;5.47;4.97;;;9.10;99.90;;;;;;466082;255;27647;-70
2021/09/01 04:05:19;;;;;;;6.73;5.97;;;9.10;99.90;;;;;;465953;255;27657;-70
2021/09/01 04:07:21;;;;;;;6.50;5.40;;;9.10;99.90;;;;;;465657;255;28174;-70
2021/09/01 04:09:22;;;;;;;6.77;6.00;;;9.00;99.90;;;;;;465721;255;28036;-70
2021/09/01 04:11:23;;;;;;;6.73;6.03;;;9.00;99.90;;;;;;465664;255;28001;-70
2021/09/01 04:13:24;;;;;;;5.67;5.17;;;8.90;99.90;;;;;;466056;255;27879;-70
2021/09/01 04:15:26;;;;;;;5.83;5.23;;;8.90;99.90;;;;;;466111;255;27930;-69
2021/09/01 04:17:30;;;;;;;5.97;5.37;;;8.90;99.90;;;;;;466098;255;27519;-70
2021/09/01 04:19:29;;;;;;;6.17;5.07;;;8.90;99.90;;;;;;465937;254;28117;-70
2021/09/01 04:21:29;;;;;;;5.47;4.90;;;8.90;99.90;;;;;;466046;252;27862;-70
2021/09/01 04:23:31;;;;;;;6.80;6.10;;;8.90;99.90;;;;;;466091;255;28137;-70
2021/09/01 04:25:32;;;;;;;6.33;5.73;;;8.90;99.90;;;;;;466098;255;28424;-70
2021/09/01 04:27:33;;;;;;;5.97;5.47;;;8.90;99.90;;;;;;466049;255;28549;-70
2021/09/01 04:29:34;;;;;;;8.20;6.40;;;8.90;99.90;;;;;;466086;255;28721;-70
2021/09/01 04:31:36;;;;;;;6.30;5.70;;;8.90;99.90;;;;;;466046;255;28423;-70
2021/09/01 04:33:37;;;;;;;7.13;5.60;;;8.90;99.90;;;;;;466037;255;28805;-70
2021/09/01 04:35:38;;;;;;;7.03;6.00;;;9.00;99.90;;;;;;466106;255;28146;-70
2021/09/01 04:37:39;;;;;;;5.90;5.30;;;9.00;99.90;;;;;;466118;255;27993;-70
2021/09/01 04:39:41;;;;;;;7.23;6.20;;;9.00;99.90;;;;;;465948;255;27915;-70
2021/09/01 04:41:42;;;;;;;6.30;5.70;;;9.00;99.90;;;;;;466059;255;28164;-70
2021/09/01 04:43:43;;;;;;;7.57;6.10;;;9.00;99.90;;;;;;466101;255;27863;-70
2021/09/01 04:45:44;;;;;;;6.67;5.70;;;9.00;99.90;;;;;;466009;255;27640;-70
2021/09/01 04:47:46;;;;;;;6.33;5.73;;;8.90;99.90;;;;;;466084;255;27998;-70
2021/09/01 04:49:47;;;;;;;6.60;5.80;;;9.00;99.90;;;;;;465860;255;28017;-70
2021/09/01 04:51:48;;;;;;;6.80;5.77;;;9.00;99.90;;;;;;466074;254;28096;-70
2021/09/01 04:53:49;;;;;;;6.47;5.83;;;9.00;99.90;;;;;;466085;254;28092;-70
2021/09/01 04:55:51;;;;;;;6.03;5.30;;;8.90;99.90;;;;;;466030;255;28012;-70
2021/09/01 04:57:52;;;;;;;6.20;5.60;;;8.90;99.90;;;;;;466069;255;28134;-70
2021/09/01 04:59:53;;;;;;;6.27;5.67;;;8.90;99.90;;;;;;466065;255;28040;-70
2021/09/01 05:01:54;;;;;;;4.80;4.40;;;8.90;99.90;;;;;;464919;255;28207;-70
2021/09/01 05:03:56;;;;;;;5.80;5.20;;;8.90;99.90;;;;;;466105;255;28517;-70
2021/09/01 05:05:57;;;;;;;6.10;5.50;;;8.80;99.90;;;;;;466128;255;28504;-70
2021/09/01 05:07:58;;;;;;;6.17;5.50;;;8.80;99.90;;;;;;466092;255;28073;-70
2021/09/01 05:09:59;;;;;;;5.40;4.87;;;8.80;99.90;;;;;;466076;250;28125;-70
2021/09/01 05:12:01;;;;;;;4.70;4.30;;;8.80;99.90;;;;;;466076;255;28551;-70
2021/09/01 05:14:02;;;;;;;5.80;5.20;;;8.90;99.90;;;;;;466097;255;28012;-70
2021/09/01 05:16:03;;;;;;;6.83;6.13;;;8.90;99.90;;;;;;466084;255;28015;-70
2021/09/01 05:18:04;;;;;;;5.60;5.10;;;8.90;99.90;;;;;;465808;255;27839;-70
2021/09/01 05:20:06;;;;;;;6.17;5.57;;;9.00;99.90;;;;;;466054;255;27771;-70
2021/09/01 05:22:07;;;;;;;5.97;5.37;;;9.00;99.90;;;;;;466040;255;27871;-70
2021/09/01 05:24:08;;;;;;;6.37;5.77;;;9.00;99.90;;;;;;465151;255;28078;-70
2021/09/01 05:26:09;;;;;;;5.93;5.30;;;9.10;99.90;;;;;;465929;255;28026;-70
2021/09/01 05:28:10;;;;;;;5.60;5.10;;;9.10;99.90;;;;;;465911;255;28482;-70
2021/09/01 05:30:12;;;;;;;6.90;6.03;;;9.10;99.90;;;;;;466072;255;28111;-70
2021/09/01 05:32:13;;;;;;;5.50;4.93;;;9.10;99.90;;;;;;466037;255;28209;-70
2021/09/01 05:34:14;;;;;;;6.13;5.20;;;9.10;99.90;;;;;;466071;255;27992;-70
2021/09/01 05:36:15;;;;;;;7.63;6.30;;;9.20;99.90;;;;;;466095;255;28161;-70
2021/09/01 05:38:17;;;;;;;6.27;5.67;;;9.20;99.90;;;;;;466079;255;27998;-70
2021/09/01 05:40:18;;;;;;;8.33;5.60;;;9.30;99.90;;;;;;466042;255;27907;-69
2021/09/01 05:42:19;;;;;;;7.30;6.00;;;9.30;99.90;;;;;;465789;255;28449;-70
2021/09/01 05:44:20;;;;;;;5.77;5.07;;;9.30;99.90;;;;;;466085;255;28852;-70
2021/09/01 05:46:22;;;;;;;7.47;5.70;;;9.30;99.90;;;;;;465996;255;28520;-70
2021/09/01 05:48:23;;;;;;;5.87;5.37;;;9.40;99.90;;;;;;466094;255;28501;-70
2021/09/01 05:50:24;;;;;;;6.27;5.63;;;9.30;99.90;;;;;;466082;255;28664;-70
2021/09/01 05:52:27;;;;;;;5.10;4.60;;;9.30;99.90;;;;;;465926;255;28101;-70
2021/09/01 05:54:28;;;;;;;6.27;5.57;;;9.40;99.90;;;;;;466045;255;27945;-70
2021/09/01 05:56:29;;;;;;;6.33;5.73;;;9.40;99.90;;;;;;466068;255;27998;-70
2021/09/01 05:58:29;;;;;;;5.93;5.37;;;9.40;99.90;;;;;;465927;255;27835;-70
2021/09/01 06:00:30;;;;;;;5.93;5.33;;;9.50;99.90;;;;;;466086;255;27937;-69
2021/09/01 06:02:32;;;;;;;6.23;5.47;;;9.50;99.90;;;;;;465623;255;28167;-70
2021/09/01 06:04:33;;;;;;;6.60;5.70;;;9.60;99.90;;;;;;466053;255;27756;-70
2021/09/01 06:06:34;;;;;;;6.20;5.60;;;9.70;99.90;;;;;;466075;255;28153;-70
2021/09/01 06:08:35;;;;;;;5.37;4.83;;;9.80;99.90;;;;;;466000;255;28197;-70
2021/09/01 06:10:37;;;;;;;7.60;5.70;;;9.80;99.90;;;;;;466048;255;28146;-70
2021/09/01 06:12:38;;;;;;;6.70;5.50;;;9.90;99.90;;;;;;465879;255;27991;-70
2021/09/01 06:14:39;;;;;;;6.13;5.40;;;9.90;99.90;;;;;;466107;255;27859;-71
2021/09/01 06:16:40;;;;;;;6.90;5.83;;;10.00;99.90;;;;;;466085;252;27888;-70
2021/09/01 06:18:42;;;;;;;6.43;5.70;;;10.10;99.90;;;;;;466101;255;28002;-70
2021/09/01 06:20:43;;;;;;;6.10;5.50;;;10.00;99.90;;;;;;466023;255;28413;-70
2021/09/01 06:22:44;;;;;;;6.20;5.60;;;10.00;99.90;;;;;;466098;255;28615;-70
2021/09/01 06:24:45;;;;;;;6.70;6.00;;;10.00;99.90;;;;;;466058;255;28567;-71
2021/09/01 06:26:47;;;;;;;6.20;5.60;;;10.00;99.90;;;;;;466121;255;28031;-70
2021/09/01 06:28:48;;;;;;;7.10;5.37;;;10.00;99.90;;;;;;466098;255;27979;-70
2021/09/01 06:30:49;;;;;;;5.50;5.00;;;10.10;99.90;;;;;;466086;255;28090;-70
2021/09/01 06:32:50;;;;;;;6.07;5.47;;;10.20;99.90;;;;;;466102;255;27965;-70
2021/09/01 06:34:52;;;;;;;7.03;5.40;;;10.20;99.90;;;;;;466105;255;28176;-70
2021/09/01 06:36:53;;;;;;;5.90;5.33;;;10.30;99.90;;;;;;466094;255;28231;-71
2021/09/01 06:38:54;;;;;;;6.30;5.40;;;10.30;99.90;;;;;;466071;255;27648;-70
2021/09/01 06:40:55;;;;;;;8.70;5.00;;;10.40;99.90;;;;;;465905;255;27910;-70
2021/09/01 06:42:57;;;;;;;6.20;5.60;;;10.50;99.90;;;;;;466070;255;28008;-70
2021/09/01 06:44:58;;;;;;;5.97;5.37;;;10.60;99.90;;;;;;466102;255;28555;-70
2021/09/01 06:46:59;;;;;;;7.00;5.67;;;10.60;99.90;;;;;;465894;255;28526;-70
2021/09/01 06:49:00;;;;;;;6.80;6.10;;;10.80;99.90;;;;;;466098;255;28444;-70
2021/09/01 06:51:02;;;;;;;7.97;6.90;;;11.00;99.90;;;;;;466066;255;28044;-70
2021/09/01 06:53:03;;;;;;;7.83;6.17;;;11.20;99.90;;;;;;466123;255;28152;-70
2021/09/01 06:55:04;;;;;;;7.13;6.20;;;11.30;99.90;;;;;;466125;255;27996;-70
2021/09/01 06:57:06;;;;;;;8.70;6.63;;;11.30;99.90;;;;;;466134;255;28042;-71
2021/09/01 06:59:07;;;;;;;9.27;7.67;;;11.60;99.90;;;;;;466119;255;27951;-70
2021/09/01 07:01:08;;;;;;;11.23;8.60;;;11.90;99.90;;;;;;466048;255;28351;-70
2021/09/01 07:03:09;;;;;;;12.13;8.93;;;12.20;99.90;;;;;;466035;255;28501;-70
2021/09/01 07:05:12;;;;;;;13.10;8.77;;;12.40;99.90;;;;;;466056;255;28275;-70
2021/09/01 07:07:12;;;;;;;11.30;8.60;;;12.40;99.90;;;;;;466059;255;28807;-70
2021/09/01 07:09:13;;;;;;;10.60;8.83;;;12.50;99.90;;;;;;466086;255;28890;-71
2021/09/01 07:11:14;;;;;;;14.97;10.47;;;12.60;99.90;;;;;;466018;255;28865;-70
2021/09/01 07:13:16;;;;;;;19.50;11.37;;;12.80;99.90;;;;;;466000;255;28168;-70
2021/09/01 07:15:17;;;;;;;14.20;10.13;;;12.90;99.90;;;;;;466030;255;28109;-70
2021/09/01 07:17:18;;;;;;;14.90;9.13;;;13.00;99.90;;;;;;466076;255;28330;-70
2021/09/01 07:19:19;;;;;;;13.10;8.93;;;12.90;99.90;;;;;;466067;255;28260;-70
2021/09/01 07:21:21;;;;;;;12.33;9.13;;;12.90;99.90;;;;;;465718;255;28492;-70
2021/09/01 07:23:23;;;;;;;15.33;10.93;;;13.10;99.90;;;;;;465614;255;28626;-70
2021/09/01 07:25:24;;;;;;;15.70;10.50;;;13.20;99.90;;;;;;465707;255;29274;-71
2021/09/01 07:27:25;;;;;;;15.93;11.30;;;13.20;99.90;;;;;;465720;255;29095;-70
2021/09/01 07:29:26;;;;;;;18.60;10.30;;;13.30;99.90;;;;;;465670;255;29033;-71
2021/09/01 07:31:30;;;;;;;17.43;10.60;;;13.40;99.90;;;;;;465671;255;28449;-70
2021/09/01 07:33:29;;;;;;;12.93;9.00;;;13.40;99.90;;;;;;465548;255;28498;-70
2021/09/01 07:35:30;;;;;;;17.50;9.87;;;13.40;99.90;;;;;;465727;255;28417;-70
2021/09/01 07:37:31;;;;;;;15.80;9.73;;;13.40;99.90;;;;;;465958;255;28619;-70
2021/09/01 07:39:33;;;;;;;14.17;10.30;;;13.50;99.90;;;;;;466081;255;28608;-71
2021/09/01 07:41:36;;;;;;;13.20;9.53;;;13.50;99.90;;;;;;466002;255;28907;-71
2021/09/01 07:43:35;;;;;;;14.00;10.60;;;13.50;99.90;;;;;;465922;255;29399;-71
2021/09/01 07:45:36;;;;;;;12.33;8.70;;;13.60;99.90;;;;;;466065;255;28367;-70
2021/09/01 07:47:38;;;;;;;14.03;9.70;;;13.60;99.90;;;;;;466108;254;28179;-71
2021/09/01 07:49:39;;;;;;;13.73;9.43;;;13.60;99.90;;;;;;466076;255;28378;-71
2021/09/01 07:51:40;;;;;;;11.73;9.67;;;13.70;99.90;;;;;;466066;255;28458;-71
2021/09/01 07:53:44;;;;;;;13.37;10.00;;;13.80;99.90;;;;;;466023;255;28447;-70
2021/09/01 07:55:43;;;;;;;15.70;9.37;;;13.80;99.90;;;;;;465679;255;28461;-71
2021/09/01 07:57:44;;;;;;;15.27;11.17;;;13.90;99.90;;;;;;466096;255;28792;-70
2021/09/01 07:59:45;;;;;;;11.40;8.87;;;13.90;99.90;;;;;;465842;255;28736;-70
2021/09/01 08:01:46;;;;;;;17.23;8.83;;;13.90;99.90;;;;;;466064;255;28989;-70
2021/09/01 08:03:48;;;;;;;13.80;10.00;;;13.90;99.90;;;;;;466051;255;28323;-71
2021/09/01 08:05:49;;;;;;;12.33;9.50;;;14.00;99.90;;;;;;466084;255;28289;-69
2021/09/01 08:07:50;;;;;;;12.00;8.90;;;14.00;99.90;;;;;;466056;255;28230;-70
2021/09/01 08:09:51;;;;;;;14.00;8.80;;;14.10;99.90;;;;;;466031;255;28287;-71
2021/09/01 08:11:53;;;;;;;12.70;9.13;;;14.10;99.90;;;;;;466028;255;28257;-72
2021/09/01 08:13:54;;;;;;;13.40;9.77;;;14.10;99.90;;;;;;466049;255;28901;-70
2021/09/01 08:15:55;;;;;;;14.83;10.00;;;14.20;99.90;;;;;;465883;255;28978;-69
2021/09/01 08:17:56;;;;;;;14.93;8.53;;;14.20;99.90;;;;;;466048;255;28697;-69
2021/09/01 08:19:58;;;;;;;16.27;9.20;;;14.30;99.90;;;;;;466030;255;28262;-72
2021/09/01 08:21:59;;;;;;;17.20;9.27;;;14.30;99.90;;;;;;465673;255;28423;-69
2021/09/01 08:24:00;;;;;;;14.80;9.47;;;14.30;99.90;;;;;;465991;255;28692;-69
2021/09/01 08:26:01;;;;;;;13.27;8.57;;;14.30;99.90;;;;;;466105;254;28599;-69
2021/09/01 08:28:03;;;;;;;16.47;8.67;;;14.40;99.90;;;;;;465962;255;28476;-70
2021/09/01 08:30:04;;;;;;;13.80;9.33;;;14.60;99.90;;;;;;466099;255;28611;-70
2021/09/01 08:32:05;;;;;;;16.70;9.60;;;14.70;99.90;;;;;;466066;255;29816;-70
2021/09/01 08:34:06;;;;;;;15.30;9.90;;;14.70;99.90;;;;;;466146;255;29184;-70
2021/09/01 08:36:08;;;;;;;13.93;10.00;;;14.80;99.90;;;;;;466095;255;29496;-71
2021/09/01 08:38:09;;;;;;;13.50;9.50;;;14.90;99.90;;;;;;465963;255;28982;-71
2021/09/01 08:40:10;;;;;;;13.70;9.00;;;14.80;99.90;;;;;;466097;255;28383;-69
2021/09/01 08:42:11;;;;;;;13.73;9.37;;;14.80;99.90;;;;;;466072;255;28382;-70
2021/09/01 08:44:13;;;;;;;14.60;9.93;;;14.70;99.90;;;;;;466081;255;28434;-70
2021/09/01 08:46:14;;;;;;;11.57;8.30;;;14.80;99.90;;;;;;465922;255;28369;-71
2021/09/01 08:48:15;;;;;;;13.70;8.30;;;15.00;99.90;;;;;;466033;255;28876;-72
2021/09/01 08:50:17;;;;;;;11.33;7.90;;;15.20;99.90;;;;;;466074;255;29457;-71
2021/09/01 08:52:18;;;;;;;12.50;8.30;;;15.30;99.90;;;;;;466066;255;30114;-72
2021/09/01 08:54:19;;;;;;;14.93;8.70;;;15.50;99.90;;;;;;466094;255;28941;-71
2021/09/01 08:56:20;;;;;;;15.40;9.80;;;15.50;99.90;;;;;;465954;255;28907;-72
2021/09/01 08:58:22;;;;;;;11.20;8.80;;;15.30;99.90;;;;;;466047;255;29012;-72
2021/09/01 09:00:23;;;;;;;11.63;9.13;;;15.30;99.90;;;;;;466051;255;28901;-71
2021/09/01 09:02:24;;;;;;;11.77;7.87;;;15.40;99.90;;;;;;466015;255;28959;-71
2021/09/01 09:04:25;;;;;;;10.50;7.23;;;15.70;99.90;;;;;;466058;255;28896;-71
2021/09/01 09:06:27;;;;;;;12.10;8.63;;;16.00;99.90;;;;;;466087;255;28913;-70
2021/09/01 09:08:28;;;;;;;10.43;8.50;;;15.90;99.90;;;;;;466037;255;29317;-71
2021/09/01 09:10:29;;;;;;;11.93;7.87;;;15.60;99.90;;;;;;466077;255;29385;-71
2021/09/01 09:12:31;;;;;;;12.57;8.17;;;15.90;99.90;;;;;;465811;255;29180;-71
2021/09/01 09:14:32;;;;;;;10.60;8.87;;;16.00;99.90;;;;;;466075;255;28874;-71
2021/09/01 09:16:33;;;;;;;14.47;8.77;;;15.90;99.90;;;;;;466073;255;28929;-71
2021/09/01 09:18:34;;;;;;;12.60;8.60;;;15.70;99.90;;;;;;465903;255;28870;-71
2021/09/01 09:20:35;;;;;;;11.23;8.60;;;15.50;99.90;;;;;;466084;255;28933;-72
2021/09/01 09:22:37;;;;;;;10.13;8.20;;;15.40;99.90;;;;;;466008;255;28891;-71
2021/09/01 09:24:38;;;;;;;11.50;8.30;;;15.70;99.90;;;;;;466090;255;28957;-71
2021/09/01 09:26:41;;;;;;;9.47;7.60;;;15.80;99.90;;;;;;466007;255;29345;-71
2021/09/01 09:28:40;;;;;;;13.70;8.20;;;15.90;99.90;;;;;;465894;255;29322;-71
2021/09/01 09:30:42;;;;;;;8.67;6.70;;;15.80;99.90;;;;;;466058;255;29028;-71
2021/09/01 09:32:43;;;;;;;8.50;6.90;;;15.80;99.90;;;;;;466070;255;28912;-71
2021/09/01 09:34:44;;;;;;;11.13;7.50;;;16.00;99.90;;;;;;466096;255;28899;-71
2021/09/01 09:36:45;;;;;;;7.07;6.07;;;16.10;99.90;;;;;;466020;255;28913;-71
2021/09/01 09:38:47;;;;;;;13.70;7.87;;;16.20;99.90;;;;;;466063;255;28945;-71
2021/09/01 09:40:48;;;;;;;10.13;7.40;;;16.10;99.90;;;;;;466079;255;28934;-71
2021/09/01 09:42:49;;;;;;;10.03;6.83;;;16.20;99.90;;;;;;465951;255;28893;-70
2021/09/01 09:44:50;;;;;;;10.10;7.20;;;16.30;99.90;;;;;;466081;255;28883;-71
2021/09/01 09:46:52;;;;;;;10.60;6.83;;;16.60;99.90;;;;;;466020;255;29472;-70
2021/09/01 09:48:53;;;;;;;8.50;6.60;;;16.60;99.90;;;;;;465848;255;29352;-71
2021/09/01 09:50:54;;;;;;;11.13;8.07;;;16.80;99.90;;;;;;465873;255;29409;-71
2021/09/01 09:52:56;;;;;;;8.83;6.93;;;16.80;99.90;;;;;;465667;255;28945;-70
2021/09/01 09:54:57;;;;;;;9.47;7.10;;;16.70;99.90;;;;;;465932;255;29017;-70
2021/09/01 09:56:58;;;;;;;12.47;7.23;;;16.50;99.90;;;;;;466112;255;28929;-70
2021/09/01 09:58:59;;;;;;;12.40;7.60;;;16.40;99.90;;;;;;466075;255;28972;-71
2021/09/01 10:01:00;;;;;;;9.03;8.13;;;16.30;99.90;;;;;;466049;255;28924;-72
2021/09/01 10:03:02;;;;;;;9.40;7.43;;;16.50;99.90;;;;;;466115;255;29268;-71
2021/09/01 10:05:03;;;;;;;12.30;7.70;;;16.70;99.90;;;;;;465659;255;28951;-70
2021/09/01 10:07:04;;;;;;;8.10;6.70;;;16.60;99.90;;;;;;465972;255;29369;-70
2021/09/01 10:09:05;;;;;;;12.73;7.20;;;16.80;99.90;;;;;;466075;255;29455;-72
2021/09/01 10:11:07;;;;;;;10.27;7.67;;;16.70;99.90;;;;;;466043;255;29477;-71
2021/09/01 10:13:08;;;;;;;11.43;8.90;;;16.60;99.90;;;;;;466052;255;28960;-70
2021/09/01 10:15:09;;;;;;;13.83;7.57;;;16.50;99.90;;;;;;466009;255;28886;-71
2021/09/01 10:17:10;;;;;;;11.13;8.07;;;16.50;99.90;;;;;;466108;255;28988;-71
2021/09/01 10:19:15;;;;;;;13.27;8.80;;;16.60;99.90;;;;;;466057;255;28942;-71
2021/09/01 10:21:13;;;;;;;12.97;8.20;;;16.50;99.90;;;;;;465857;255;29028;-71
2021/09/01 10:23:14;;;;;;;14.03;8.37;;;16.60;99.90;;;;;;466032;255;29391;-71
2021/09/01 10:25:15;;;;;;;11.00;8.03;;;16.70;99.90;;;;;;466012;255;29341;-71
2021/09/01 10:27:19;;;;;;;11.20;7.53;;;16.90;99.90;;;;;;466007;255;29405;-71
2021/09/01 10:29:18;;;;;;;11.50;7.80;;;17.00;99.90;;;;;;465719;255;29353;-72
2021/09/01 10:31:19;;;;;;;8.53;6.60;;;17.30;99.90;;;;;;466069;255;29026;-72